PWSweather.com
Personal Weather Stations
Station Observations
IRIVIRED2
île Maurice, Petit RaffrayMU

île MauricePetit RaffrayMU

Lat: -20.02533, Lon: 57.61883

Elevation: 183

Station Type: Davis Vantage Pro2 plus

http://www.meteomauritius.altervista.org

Latest ConditionsUpdated 8:10:00 AM GMT+04:04 Saturday, Feb 24, 2018
Currently Today's Max Today's Min Today's Average
Temperature 78.8°F26.0°C 78.8°F26.0°C 75.2°F24.0°C 76.0°F24.4°C
Dew Point 75.6°F24.2°C 75.6°F24.2°C 72.1°F22.3°C 72.9°F22.7°C
Winds Calm Calm 5.8 mph N9.3 kmh N - 0.7 mph 1.1 kmh
Wind Gusts -- 9.2 mph14.8 kmh - -
Humidity 90% 90% 89% 90%
Pressure 29.89 in1012.2 mb 29.89 in1012.2 mb 29.84 in1010.5 mb -
Precipitation - 0.49 in12.4 mm - -
Hour Temp Dew Point Humidity Winds Wind Gusts Pressure Precip Precip Rate Daily Precip Total
08:10 AM 78.8°F26.0°C 75.6°F24.2°C 90% Calm Calm -- 29.89 in1012.2 mb - 0.00 in0.0 mm 0.49 in12.4 mm
08:00 AM 78.0°F25.6°C 74.5°F23.6°C 89% Calm Calm -- 29.89 in1012.2 mb - 0.00 in0.0 mm 0.49 in12.4 mm
07:50 AM 77.4°F25.2°C 74.2°F23.4°C 90% 1.2 mph E1.9 kmh E 1.2 mph1.9 kmh 29.89 in1012.2 mb - 0.00 in0.0 mm 0.49 in12.4 mm
07:40 AM 76.8°F24.9°C 73.3°F22.9°C 89% 1.2 mph ENE1.9 kmh ENE 3.5 mph5.6 kmh 29.89 in1012.2 mb - 0.00 in0.0 mm 0.49 in12.4 mm
07:30 AM 76.1°F24.5°C 72.6°F22.6°C 89% Calm Calm -- 29.88 in1011.9 mb - 0.00 in0.0 mm 0.49 in12.4 mm
07:20 AM 75.6°F24.2°C 72.5°F22.5°C 90% 2.3 mph ENE3.7 kmh ENE 3.5 mph5.6 kmh 29.88 in1011.9 mb - 0.00 in0.0 mm 0.49 in12.4 mm
07:10 AM 75.5°F24.2°C 72.4°F22.4°C 90% Calm Calm 2.3 mph3.7 kmh 29.88 in1011.9 mb - 0.00 in0.0 mm 0.49 in12.4 mm
07:00 AM 75.4°F24.1°C 72.3°F22.4°C 90% Calm Calm 1.2 mph1.9 kmh 29.88 in1011.9 mb - 0.00 in0.0 mm 0.49 in12.4 mm
06:50 AM 75.4°F24.1°C 72.3°F22.4°C 90% Calm Calm -- 29.87 in1011.5 mb - 0.00 in0.0 mm 0.49 in12.4 mm
06:40 AM 75.4°F24.1°C 72.3°F22.4°C 90% Calm Calm -- 29.87 in1011.5 mb - 0.00 in0.0 mm 0.49 in12.4 mm
06:30 AM 75.5°F24.2°C 72.3°F22.4°C 90% Calm Calm -- 29.87 in1011.5 mb - 0.00 in0.0 mm 0.49 in12.4 mm
06:20 AM 75.4°F24.1°C 72.3°F22.4°C 90% 1.2 mph NE1.9 kmh NE -- 29.86 in1011.2 mb - 0.00 in0.0 mm 0.49 in12.4 mm
06:10 AM 75.5°F24.2°C 72.3°F22.4°C 90% Calm Calm -- 29.86 in1011.2 mb - 0.00 in0.0 mm 0.49 in12.4 mm
06:00 AM 75.6°F24.2°C 72.5°F22.5°C 90% Calm Calm -- 29.86 in1011.2 mb - 0.00 in0.0 mm 0.49 in12.4 mm
05:50 AM 75.6°F24.2°C 72.5°F22.5°C 90% Calm Calm -- 29.86 in1011.2 mb - 0.00 in0.0 mm 0.49 in12.4 mm
05:40 AM 75.7°F24.3°C 72.6°F22.6°C 90% Calm Calm -- 29.86 in1011.2 mb - 0.00 in0.0 mm 0.49 in12.4 mm
05:30 AM 75.8°F24.3°C 72.7°F22.6°C 90% Calm Calm -- 29.86 in1011.2 mb - 0.00 in0.0 mm 0.49 in12.4 mm
05:20 AM 75.8°F24.3°C 72.6°F22.6°C 90% 2.3 mph NE3.7 kmh NE 3.5 mph5.6 kmh 29.87 in1011.5 mb - 0.00 in0.0 mm 0.49 in12.4 mm
05:10 AM 75.7°F24.3°C 72.6°F22.6°C 90% 2.3 mph NE3.7 kmh NE 3.5 mph5.6 kmh 29.87 in1011.5 mb - 0.00 in0.0 mm 0.49 in12.4 mm
05:00 AM 75.6°F24.2°C 72.5°F22.5°C 90% Calm Calm -- 29.87 in1011.5 mb - 0.00 in0.0 mm 0.49 in12.4 mm
04:50 AM 75.5°F24.2°C 72.4°F22.4°C 90% 1.2 mph NE1.9 kmh NE 2.3 mph3.7 kmh 29.87 in1011.5 mb - 0.00 in0.0 mm 0.49 in12.4 mm
04:40 AM 75.7°F24.3°C 72.5°F22.5°C 90% 2.3 mph NE3.7 kmh NE 3.5 mph5.6 kmh 29.86 in1011.2 mb - 0.00 in0.0 mm 0.49 in12.4 mm
04:30 AM 75.6°F24.2°C 72.5°F22.5°C 90% 1.2 mph NE1.9 kmh NE 3.5 mph5.6 kmh 29.86 in1011.2 mb - 0.00 in0.0 mm 0.49 in12.4 mm
04:20 AM 75.6°F24.2°C 72.5°F22.5°C 90% 1.2 mph NE1.9 kmh NE 2.3 mph3.7 kmh 29.86 in1011.2 mb - 0.00 in0.0 mm 0.49 in12.4 mm
04:10 AM 75.7°F24.3°C 72.6°F22.6°C 90% 1.2 mph NE1.9 kmh NE -- 29.86 in1011.2 mb - 0.00 in0.0 mm 0.49 in12.4 mm
04:00 AM 75.6°F24.2°C 72.5°F22.5°C 90% Calm Calm -- 29.85 in1010.8 mb - 0.00 in0.0 mm 0.49 in12.4 mm
03:50 AM 75.5°F24.2°C 72.3°F22.4°C 90% Calm Calm -- 29.85 in1010.8 mb - 0.00 in0.0 mm 0.49 in12.4 mm
03:40 AM 75.3°F24.1°C 72.2°F22.3°C 90% Calm Calm -- 29.84 in1010.5 mb - 0.00 in0.0 mm 0.49 in12.4 mm
03:30 AM 75.2°F24.0°C 72.1°F22.3°C 90% Calm Calm -- 29.85 in1010.8 mb - 0.00 in0.0 mm 0.49 in12.4 mm
03:20 AM 75.6°F24.2°C 72.5°F22.5°C 90% Calm Calm 3.5 mph5.6 kmh 29.85 in1010.8 mb - 0.00 in0.0 mm 0.49 in12.4 mm
03:10 AM 76.0°F24.4°C 72.5°F22.5°C 89% Calm Calm 2.3 mph3.7 kmh 29.85 in1010.8 mb - 0.00 in0.0 mm 0.49 in12.4 mm
03:00 AM 76.0°F24.4°C 72.5°F22.5°C 89% Calm Calm 3.5 mph5.6 kmh 29.85 in1010.8 mb - 0.02 in0.5 mm 0.49 in12.4 mm
02:50 AM 75.8°F24.3°C 72.3°F22.4°C 89% 4.6 mph NE7.4 kmh NE 8.1 mph13.0 kmh 29.85 in1010.8 mb - 0.09 in2.3 mm 0.48 in12.2 mm
02:40 AM 76.2°F24.6°C 73.1°F22.8°C 90% 4.6 mph NNE7.4 kmh NNE 6.9 mph11.1 kmh 29.84 in1010.5 mb - 0.21 in5.3 mm 0.41 in10.4 mm
02:30 AM 76.3°F24.6°C 73.1°F22.8°C 90% 5.8 mph N9.3 kmh N 9.2 mph14.8 kmh 29.84 in1010.5 mb - 0.23 in5.8 mm 0.23 in5.8 mm
02:20 AM 76.5°F24.7°C 73.3°F22.9°C 90% Calm Calm -- 29.84 in1010.5 mb - 0.00 in0.0 mm 0.00 in0.0 mm
02:10 AM 76.4°F24.7°C 73.2°F22.9°C 90% Calm Calm -- 29.84 in1010.5 mb - 0.00 in0.0 mm 0.00 in0.0 mm
02:00 AM 76.4°F24.7°C 73.2°F22.9°C 90% Calm Calm -- 29.85 in1010.8 mb - 0.00 in0.0 mm 0.00 in0.0 mm
01:50 AM 76.4°F24.7°C 73.3°F22.9°C 90% Calm Calm -- 29.85 in1010.8 mb - 0.00 in0.0 mm 0.00 in0.0 mm
01:40 AM 76.2°F24.6°C 73.1°F22.8°C 90% Calm Calm -- 29.85 in1010.8 mb - 0.00 in0.0 mm 0.00 in0.0 mm
01:30 AM 76.3°F24.6°C 73.1°F22.8°C 90% Calm Calm -- 29.85 in1010.8 mb - 0.00 in0.0 mm 0.00 in0.0 mm
01:20 AM 76.3°F24.6°C 73.1°F22.8°C 90% Calm Calm -- 29.85 in1010.8 mb - 0.00 in0.0 mm 0.00 in0.0 mm
01:10 AM 76.3°F24.6°C 73.1°F22.8°C 90% Calm Calm -- 29.85 in1010.8 mb - 0.00 in0.0 mm 0.00 in0.0 mm
01:00 AM 76.5°F24.7°C 73.3°F22.9°C 90% Calm Calm -- 29.85 in1010.8 mb - 0.00 in0.0 mm 0.00 in0.0 mm
12:50 AM 76.5°F24.7°C 73.3°F22.9°C 90% Calm Calm -- 29.86 in1011.2 mb - 0.00 in0.0 mm 0.00 in0.0 mm
12:40 AM 76.5°F24.7°C 73.3°F22.9°C 90% Calm Calm -- 29.86 in1011.2 mb - 0.00 in0.0 mm 0.00 in0.0 mm
12:30 AM 76.5°F24.7°C 73.3°F22.9°C 90% Calm Calm -- 29.86 in1011.2 mb - 0.00 in0.0 mm 0.00 in0.0 mm
12:20 AM 76.4°F24.7°C 73.2°F22.9°C 90% Calm Calm -- 29.86 in1011.2 mb - 0.00 in0.0 mm 0.00 in0.0 mm
12:10 AM 76.4°F24.7°C 73.2°F22.9°C 90% Calm Calm -- 29.86 in1011.2 mb - 0.00 in0.0 mm 0.00 in0.0 mm
12:00 AM 76.5°F24.7°C 73.3°F22.9°C 90% Calm Calm -- 29.86 in1011.2 mb - 0.00 in0.0 mm 0.00 in0.0 mm